Salem, Michigan
Current Conditions -  °F | °C
As of 7:53 PM on Tuesday 21 Oct 2014 (Local Time) from KYIP Reporting Station
Overcast Overcast  
Wind Chill: 43°   Ceiling: 2200
Heat Index: 48°   Visibility: 10mi
Dew Point: 36°   Wind: 13mph
Humidity: 63%   Direction: 10°N
Pressure: 30.17"   Gusts: NA
Location:  42.41°N, 83.58°W
Report Text: KYIP 212353Z AUTO 01011KT 10SM OVC022 09/02 A3017 RMK AO2 SLP216 T00890022 10100 20089 51018 TSNO
Loading
Personal Weather Stations






























Interactive Weather Map
Tropical Storm Tracking
New forecast layout! Learn more

10-Day Weather Forecast

Advertisements
Track Severe Weather on mobile